CheckWX is a tool to help pilots better visualize weather data.  It is not intended as a substitute for an official pre-flight weather briefing.

21:38:45 UTC

KTOR METAR
Torrington Municipal Airport
Torrington, Wyoming, USA
Current

46 mins ago

KTOR 202053Z AUTO 32017G29KT 10SM CLR 01/M18 A2956 RMK AO2 PK WND 30029/2046 SLP055 T00061178 55007
Observed
Feb-20 @ 20:53 UTC
Wind
  • 320° at 17 KTS
  • Gusting to 29 KTS
Visibility
16,093 meters
Flight Rules
VFR
Cloud Levels
  • Clear skies
Temperature
C / 34°F
Dewpoint
-18°C / -0°F
Humidity
23%
Altimeter
29.56" Hg
Pressure
1005.5 hPa
Previous

2 hours ago

KTOR 201953Z AUTO 28015G23KT 10SM CLR 00/M16 A2956 RMK AO2 PK WND 27030/1912 SLP055 T00001161
Observed
Feb-20 @ 19:53 UTC
Wind
  • 280° at 15 KTS
  • Gusting to 23 KTS
Visibility
16,093 meters
Flight Rules
VFR
Cloud Levels
  • Clear skies
Temperature
C / 32°F
Dewpoint
-16°C / 3°F
Humidity
29%
Altimeter
29.56" Hg
Pressure
1005.5 hPa
Previous

3 hours ago

KTOR 201853Z AUTO 29012KT CLR M01/M15 A2957 RMK AO2 SLP061 T10111150 $
Observed
Feb-20 @ 18:53 UTC
Wind
  • 290° at 12 KTS
Visibility
Cloud Levels
  • Clear skies
Temperature
-1°C / 30°F
Dewpoint
-15°C / 5°F
Humidity
34%
Altimeter
29.57" Hg
Pressure
1006.1 hPa